sensor_id;sensor_type;location;lat;lon;timestamp;P1;durP1;ratioP1;P2;durP2;ratioP2
51438;SDS011;38816;51.142;-0.974;2023-12-20T00:00:21;35.47;;;32.25;;
51438;SDS011;38816;51.142;-0.974;2023-12-20T00:02:46;38.55;;;34.83;;
51438;SDS011;38816;51.142;-0.974;2023-12-20T00:05:13;35.40;;;32.30;;
51438;SDS011;38816;51.142;-0.974;2023-12-20T00:07:39;33.05;;;29.33;;
51438;SDS011;38816;51.142;-0.974;2023-12-20T00:10:05;35.97;;;32.22;;
51438;SDS011;38816;51.142;-0.974;2023-12-20T00:12:33;39.67;;;36.25;;
51438;SDS011;38816;51.142;-0.974;2023-12-20T00:14:59;39.58;;;35.85;;
51438;SDS011;38816;51.142;-0.974;2023-12-20T00:17:24;40.67;;;36.67;;
51438;SDS011;38816;51.142;-0.974;2023-12-20T00:19:49;36.80;;;33.53;;
51438;SDS011;38816;51.142;-0.974;2023-12-20T00:22:15;35.05;;;31.85;;
51438;SDS011;38816;51.142;-0.974;2023-12-20T00:24:40;30.52;;;28.00;;
51438;SDS011;38816;51.142;-0.974;2023-12-20T00:27:06;31.67;;;28.35;;
51438;SDS011;38816;51.142;-0.974;2023-12-20T00:29:31;41.70;;;37.55;;
51438;SDS011;38816;51.142;-0.974;2023-12-20T00:31:57;39.88;;;36.53;;
51438;SDS011;38816;51.142;-0.974;2023-12-20T00:34:23;57.50;;;52.50;;
51438;SDS011;38816;51.142;-0.974;2023-12-20T00:36:48;33.13;;;29.83;;
51438;SDS011;38816;51.142;-0.974;2023-12-20T00:39:14;41.10;;;30.52;;
51438;SDS011;38816;51.142;-0.974;2023-12-20T00:41:39;39.35;;;35.50;;
51438;SDS011;38816;51.142;-0.974;2023-12-20T00:44:05;51.58;;;39.83;;
51438;SDS011;38816;51.142;-0.974;2023-12-20T00:46:30;40.10;;;34.95;;
51438;SDS011;38816;51.142;-0.974;2023-12-20T00:48:55;43.45;;;39.33;;
51438;SDS011;38816;51.142;-0.974;2023-12-20T00:51:21;33.97;;;30.58;;
51438;SDS011;38816;51.142;-0.974;2023-12-20T00:53:48;38.53;;;35.00;;
51438;SDS011;38816;51.142;-0.974;2023-12-20T00:56:15;44.72;;;40.33;;
51438;SDS011;38816;51.142;-0.974;2023-12-20T00:58:40;42.05;;;37.95;;
51438;SDS011;38816;51.142;-0.974;2023-12-20T01:01:06;46.55;;;42.33;;
51438;SDS011;38816;51.142;-0.974;2023-12-20T01:03:31;37.17;;;33.47;;
51438;SDS011;38816;51.142;-0.974;2023-12-20T01:05:57;37.60;;;33.88;;
51438;SDS011;38816;51.142;-0.974;2023-12-20T01:08:22;45.20;;;41.42;;
51438;SDS011;38816;51.142;-0.974;2023-12-20T01:10:48;42.10;;;38.38;;
51438;SDS011;38816;51.142;-0.974;2023-12-20T01:13:13;42.85;;;38.72;;
51438;SDS011;38816;51.142;-0.974;2023-12-20T01:15:39;40.50;;;36.53;;
51438;SDS011;38816;51.142;-0.974;2023-12-20T01:18:04;42.28;;;38.33;;
51438;SDS011;38816;51.142;-0.974;2023-12-20T01:20:30;42.08;;;38.05;;
51438;SDS011;38816;51.142;-0.974;2023-12-20T01:22:55;39.65;;;35.63;;
51438;SDS011;38816;51.142;-0.974;2023-12-20T01:25:21;48.65;;;42.78;;
51438;SDS011;38816;51.142;-0.974;2023-12-20T01:27:46;42.25;;;38.13;;
51438;SDS011;38816;51.142;-0.974;2023-12-20T01:30:12;39.67;;;36.03;;
51438;SDS011;38816;51.142;-0.974;2023-12-20T01:32:38;35.40;;;32.33;;
51438;SDS011;38816;51.142;-0.974;2023-12-20T01:35:04;42.78;;;38.13;;
51438;SDS011;38816;51.142;-0.974;2023-12-20T01:37:29;31.38;;;28.10;;
51438;SDS011;38816;51.142;-0.974;2023-12-20T01:39:55;38.53;;;35.03;;
51438;SDS011;38816;51.142;-0.974;2023-12-20T01:42:20;40.35;;;35.67;;
51438;SDS011;38816;51.142;-0.974;2023-12-20T01:44:47;37.28;;;33.47;;
51438;SDS011;38816;51.142;-0.974;2023-12-20T01:47:13;42.80;;;38.33;;
51438;SDS011;38816;51.142;-0.974;2023-12-20T01:49:38;45.05;;;40.85;;
51438;SDS011;38816;51.142;-0.974;2023-12-20T01:52:04;47.33;;;42.17;;
51438;SDS011;38816;51.142;-0.974;2023-12-20T01:54:30;41.58;;;35.60;;
51438;SDS011;38816;51.142;-0.974;2023-12-20T01:56:56;34.88;;;31.42;;
51438;SDS011;38816;51.142;-0.974;2023-12-20T01:59:22;42.83;;;38.38;;
51438;SDS011;38816;51.142;-0.974;2023-12-20T02:01:48;46.03;;;40.58;;
51438;SDS011;38816;51.142;-0.974;2023-12-20T02:04:16;40.78;;;36.83;;
51438;SDS011;38816;51.142;-0.974;2023-12-20T02:06:42;35.75;;;32.63;;
51438;SDS011;38816;51.142;-0.974;2023-12-20T02:09:11;41.38;;;35.55;;
51438;SDS011;38816;51.142;-0.974;2023-12-20T02:11:36;41.90;;;38.13;;
51438;SDS011;38816;51.142;-0.974;2023-12-20T02:14:03;42.25;;;37.95;;
51438;SDS011;38816;51.142;-0.974;2023-12-20T02:16:28;45.78;;;37.47;;
51438;SDS011;38816;51.142;-0.974;2023-12-20T02:18:54;40.15;;;36.38;;
51438;SDS011;38816;51.142;-0.974;2023-12-20T02:21:24;53.53;;;34.63;;
51438;SDS011;38816;51.142;-0.974;2023-12-20T02:23:50;41.97;;;37.35;;
51438;SDS011;38816;51.142;-0.974;2023-12-20T02:26:16;44.95;;;40.63;;
51438;SDS011;38816;51.142;-0.974;2023-12-20T02:28:41;45.55;;;38.15;;
51438;SDS011;38816;51.142;-0.974;2023-12-20T02:31:07;41.85;;;37.40;;
51438;SDS011;38816;51.142;-0.974;2023-12-20T02:33:32;42.95;;;38.42;;
51438;SDS011;38816;51.142;-0.974;2023-12-20T02:35:58;41.47;;;37.15;;
51438;SDS011;38816;51.142;-0.974;2023-12-20T02:38:23;47.70;;;41.47;;
51438;SDS011;38816;51.142;-0.974;2023-12-20T02:40:49;40.22;;;36.17;;
51438;SDS011;38816;51.142;-0.974;2023-12-20T02:43:14;40.88;;;36.90;;
51438;SDS011;38816;51.142;-0.974;2023-12-20T02:45:40;45.03;;;34.08;;
51438;SDS011;38816;51.142;-0.974;2023-12-20T02:48:05;41.67;;;37.63;;
51438;SDS011;38816;51.142;-0.974;2023-12-20T02:50:31;44.15;;;34.63;;
51438;SDS011;38816;51.142;-0.974;2023-12-20T02:52:56;48.83;;;38.08;;
51438;SDS011;38816;51.142;-0.974;2023-12-20T02:55:22;39.15;;;35.28;;
51438;SDS011;38816;51.142;-0.974;2023-12-20T02:57:47;42.15;;;35.03;;
51438;SDS011;38816;51.142;-0.974;2023-12-20T03:00:13;47.60;;;38.15;;
51438;SDS011;38816;51.142;-0.974;2023-12-20T03:02:39;37.20;;;33.85;;
51438;SDS011;38816;51.142;-0.974;2023-12-20T03:05:04;39.38;;;35.35;;
51438;SDS011;38816;51.142;-0.974;2023-12-20T03:07:30;45.13;;;38.40;;
51438;SDS011;38816;51.142;-0.974;2023-12-20T03:09:56;41.50;;;36.50;;
51438;SDS011;38816;51.142;-0.974;2023-12-20T03:12:21;45.67;;;41.38;;
51438;SDS011;38816;51.142;-0.974;2023-12-20T03:14:47;44.58;;;39.05;;
51438;SDS011;38816;51.142;-0.974;2023-12-20T03:17:13;41.97;;;31.40;;
51438;SDS011;38816;51.142;-0.974;2023-12-20T03:19:39;39.15;;;34.35;;
51438;SDS011;38816;51.142;-0.974;2023-12-20T03:22:04;36.30;;;32.00;;
51438;SDS011;38816;51.142;-0.974;2023-12-20T03:24:30;39.88;;;34.15;;
51438;SDS011;38816;51.142;-0.974;2023-12-20T03:26:55;52.72;;;47.92;;
51438;SDS011;38816;51.142;-0.974;2023-12-20T03:29:21;36.28;;;32.00;;
51438;SDS011;38816;51.142;-0.974;2023-12-20T03:31:46;38.88;;;31.90;;
51438;SDS011;38816;51.142;-0.974;2023-12-20T03:34:11;38.50;;;32.10;;
51438;SDS011;38816;51.142;-0.974;2023-12-20T03:36:37;34.88;;;31.30;;
51438;SDS011;38816;51.142;-0.974;2023-12-20T03:39:03;44.50;;;37.38;;
51438;SDS011;38816;51.142;-0.974;2023-12-20T03:41:30;32.42;;;28.92;;
51438;SDS011;38816;51.142;-0.974;2023-12-20T03:43:55;42.03;;;33.90;;
51438;SDS011;38816;51.142;-0.974;2023-12-20T03:46:21;40.30;;;36.13;;
51438;SDS011;38816;51.142;-0.974;2023-12-20T03:48:46;43.50;;;34.95;;
51438;SDS011;38816;51.142;-0.974;2023-12-20T03:51:12;31.80;;;28.52;;
51438;SDS011;38816;51.142;-0.974;2023-12-20T03:53:37;38.28;;;28.35;;
51438;SDS011;38816;51.142;-0.974;2023-12-20T03:56:04;41.42;;;31.92;;
51438;SDS011;38816;51.142;-0.974;2023-12-20T03:58:30;43.58;;;35.05;;
51438;SDS011;38816;51.142;-0.974;2023-12-20T04:00:56;46.75;;;34.15;;
51438;SDS011;38816;51.142;-0.974;2023-12-20T04:03:21;39.72;;;33.00;;
51438;SDS011;38816;51.142;-0.974;2023-12-20T04:05:47;37.65;;;33.17;;
51438;SDS011;38816;51.142;-0.974;2023-12-20T04:08:12;44.13;;;37.38;;
51438;SDS011;38816;51.142;-0.974;2023-12-20T04:10:38;36.30;;;32.38;;
51438;SDS011;38816;51.142;-0.974;2023-12-20T04:13:03;40.05;;;35.95;;
51438;SDS011;38816;51.142;-0.974;2023-12-20T04:15:29;42.10;;;33.85;;
51438;SDS011;38816;51.142;-0.974;2023-12-20T04:17:55;32.50;;;29.13;;
51438;SDS011;38816;51.142;-0.974;2023-12-20T04:20:20;44.13;;;33.00;;
51438;SDS011;38816;51.142;-0.974;2023-12-20T04:22:45;42.85;;;35.50;;
51438;SDS011;38816;51.142;-0.974;2023-12-20T04:25:11;42.60;;;38.53;;
51438;SDS011;38816;51.142;-0.974;2023-12-20T04:27:36;38.00;;;33.60;;
51438;SDS011;38816;51.142;-0.974;2023-12-20T04:30:02;39.65;;;32.17;;
51438;SDS011;38816;51.142;-0.974;2023-12-20T04:32:28;40.17;;;36.17;;
51438;SDS011;38816;51.142;-0.974;2023-12-20T04:34:54;36.10;;;31.55;;
51438;SDS011;38816;51.142;-0.974;2023-12-20T04:37:19;39.35;;;34.92;;
51438;SDS011;38816;51.142;-0.974;2023-12-20T04:39:45;39.00;;;34.28;;
51438;SDS011;38816;51.142;-0.974;2023-12-20T04:42:11;37.95;;;34.15;;
51438;SDS011;38816;51.142;-0.974;2023-12-20T04:44:36;40.13;;;35.90;;
51438;SDS011;38816;51.142;-0.974;2023-12-20T04:47:01;37.58;;;33.90;;
51438;SDS011;38816;51.142;-0.974;2023-12-20T04:49:28;44.72;;;36.80;;
51438;SDS011;38816;51.142;-0.974;2023-12-20T04:51:53;40.13;;;32.90;;
51438;SDS011;38816;51.142;-0.974;2023-12-20T04:54:19;38.22;;;34.35;;
51438;SDS011;38816;51.142;-0.974;2023-12-20T04:56:44;41.47;;;37.10;;
51438;SDS011;38816;51.142;-0.974;2023-12-20T04:59:10;37.67;;;33.65;;
51438;SDS011;38816;51.142;-0.974;2023-12-20T05:01:35;43.30;;;35.00;;
51438;SDS011;38816;51.142;-0.974;2023-12-20T05:04:01;43.33;;;35.85;;
51438;SDS011;38816;51.142;-0.974;2023-12-20T05:06:26;42.72;;;37.92;;
51438;SDS011;38816;51.142;-0.974;2023-12-20T05:08:52;37.65;;;33.78;;
51438;SDS011;38816;51.142;-0.974;2023-12-20T05:11:17;37.25;;;33.35;;
51438;SDS011;38816;51.142;-0.974;2023-12-20T05:13:43;41.53;;;33.45;;
51438;SDS011;38816;51.142;-0.974;2023-12-20T05:16:08;44.00;;;35.03;;
51438;SDS011;38816;51.142;-0.974;2023-12-20T05:18:34;38.58;;;34.90;;
51438;SDS011;38816;51.142;-0.974;2023-12-20T05:21:00;43.85;;;33.10;;
51438;SDS011;38816;51.142;-0.974;2023-12-20T05:23:26;35.05;;;31.48;;
51438;SDS011;38816;51.142;-0.974;2023-12-20T05:25:51;38.00;;;33.28;;
51438;SDS011;38816;51.142;-0.974;2023-12-20T05:28:16;39.17;;;33.25;;
51438;SDS011;38816;51.142;-0.974;2023-12-20T05:30:42;39.08;;;35.15;;
51438;SDS011;38816;51.142;-0.974;2023-12-20T05:33:08;42.50;;;37.35;;
51438;SDS011;38816;51.142;-0.974;2023-12-20T05:35:34;35.85;;;32.33;;
51438;SDS011;38816;51.142;-0.974;2023-12-20T05:38:00;41.72;;;37.10;;
51438;SDS011;38816;51.142;-0.974;2023-12-20T05:40:25;44.22;;;39.83;;
51438;SDS011;38816;51.142;-0.974;2023-12-20T05:42:50;47.42;;;35.97;;
51438;SDS011;38816;51.142;-0.974;2023-12-20T05:45:16;37.80;;;34.25;;
51438;SDS011;38816;51.142;-0.974;2023-12-20T05:47:41;46.33;;;41.42;;
51438;SDS011;38816;51.142;-0.974;2023-12-20T05:50:07;41.90;;;37.80;;
51438;SDS011;38816;51.142;-0.974;2023-12-20T05:52:33;44.28;;;39.75;;
51438;SDS011;38816;51.142;-0.974;2023-12-20T05:54:58;44.90;;;39.47;;
51438;SDS011;38816;51.142;-0.974;2023-12-20T05:57:26;41.05;;;36.80;;
51438;SDS011;38816;51.142;-0.974;2023-12-20T05:59:52;38.22;;;34.70;;
51438;SDS011;38816;51.142;-0.974;2023-12-20T06:02:17;43.65;;;38.92;;
51438;SDS011;38816;51.142;-0.974;2023-12-20T06:04:43;40.30;;;36.72;;
51438;SDS011;38816;51.142;-0.974;2023-12-20T06:07:11;48.20;;;43.50;;
51438;SDS011;38816;51.142;-0.974;2023-12-20T06:09:37;46.97;;;42.22;;
51438;SDS011;38816;51.142;-0.974;2023-12-20T06:12:03;39.38;;;35.95;;
51438;SDS011;38816;51.142;-0.974;2023-12-20T06:14:29;39.38;;;35.17;;
51438;SDS011;38816;51.142;-0.974;2023-12-20T06:16:56;40.30;;;36.10;;
51438;SDS011;38816;51.142;-0.974;2023-12-20T06:19:22;44.67;;;37.25;;
51438;SDS011;38816;51.142;-0.974;2023-12-20T06:21:47;37.75;;;34.25;;
51438;SDS011;38816;51.142;-0.974;2023-12-20T06:24:13;41.97;;;37.80;;
51438;SDS011;38816;51.142;-0.974;2023-12-20T06:26:38;38.90;;;35.08;;
51438;SDS011;38816;51.142;-0.974;2023-12-20T06:29:04;49.50;;;34.53;;
51438;SDS011;38816;51.142;-0.974;2023-12-20T06:31:29;36.22;;;32.63;;
51438;SDS011;38816;51.142;-0.974;2023-12-20T06:33:54;41.50;;;34.95;;
51438;SDS011;38816;51.142;-0.974;2023-12-20T06:36:23;44.40;;;37.58;;
51438;SDS011;38816;51.142;-0.974;2023-12-20T06:38:49;38.72;;;34.85;;
51438;SDS011;38816;51.142;-0.974;2023-12-20T06:41:15;38.05;;;33.97;;
51438;SDS011;38816;51.142;-0.974;2023-12-20T06:43:41;37.08;;;33.50;;
51438;SDS011;38816;51.142;-0.974;2023-12-20T06:46:07;36.63;;;32.83;;
51438;SDS011;38816;51.142;-0.974;2023-12-20T06:48:32;38.35;;;32.92;;
51438;SDS011;38816;51.142;-0.974;2023-12-20T06:50:59;41.03;;;33.75;;
51438;SDS011;38816;51.142;-0.974;2023-12-20T06:53:27;38.60;;;30.70;;
51438;SDS011;38816;51.142;-0.974;2023-12-20T06:55:52;39.47;;;34.78;;
51438;SDS011;38816;51.142;-0.974;2023-12-20T06:58:18;38.88;;;34.78;;
51438;SDS011;38816;51.142;-0.974;2023-12-20T07:00:43;42.60;;;30.02;;
51438;SDS011;38816;51.142;-0.974;2023-12-20T07:03:12;40.53;;;29.67;;
51438;SDS011;38816;51.142;-0.974;2023-12-20T07:05:37;38.30;;;32.80;;
51438;SDS011;38816;51.142;-0.974;2023-12-20T07:08:04;37.78;;;31.88;;
51438;SDS011;38816;51.142;-0.974;2023-12-20T07:10:29;42.00;;;30.65;;
51438;SDS011;38816;51.142;-0.974;2023-12-20T07:12:55;42.95;;;30.42;;
51438;SDS011;38816;51.142;-0.974;2023-12-20T07:15:21;34.50;;;26.35;;
51438;SDS011;38816;51.142;-0.974;2023-12-20T07:17:47;39.47;;;29.30;;
51438;SDS011;38816;51.142;-0.974;2023-12-20T07:20:12;40.58;;;30.73;;
51438;SDS011;38816;51.142;-0.974;2023-12-20T07:22:38;43.70;;;36.42;;
51438;SDS011;38816;51.142;-0.974;2023-12-20T07:25:04;32.30;;;26.48;;
51438;SDS011;38816;51.142;-0.974;2023-12-20T07:27:30;40.05;;;27.35;;
51438;SDS011;38816;51.142;-0.974;2023-12-20T07:29:56;43.95;;;34.50;;
51438;SDS011;38816;51.142;-0.974;2023-12-20T07:32:21;41.42;;;32.63;;
51438;SDS011;38816;51.142;-0.974;2023-12-20T07:34:47;42.50;;;32.45;;
51438;SDS011;38816;51.142;-0.974;2023-12-20T07:37:12;41.78;;;27.05;;
51438;SDS011;38816;51.142;-0.974;2023-12-20T07:39:41;45.75;;;38.85;;
51438;SDS011;38816;51.142;-0.974;2023-12-20T07:42:07;40.55;;;32.00;;
51438;SDS011;38816;51.142;-0.974;2023-12-20T07:44:33;56.63;;;34.53;;
51438;SDS011;38816;51.142;-0.974;2023-12-20T07:47:00;35.60;;;28.38;;
51438;SDS011;38816;51.142;-0.974;2023-12-20T07:49:26;36.47;;;31.48;;
51438;SDS011;38816;51.142;-0.974;2023-12-20T07:51:52;44.20;;;38.75;;
51438;SDS011;38816;51.142;-0.974;2023-12-20T07:54:17;46.35;;;36.97;;
51438;SDS011;38816;51.142;-0.974;2023-12-20T07:56:43;49.00;;;31.95;;
51438;SDS011;38816;51.142;-0.974;2023-12-20T07:59:08;37.70;;;33.08;;
51438;SDS011;38816;51.142;-0.974;2023-12-20T08:01:34;35.08;;;30.52;;
51438;SDS011;38816;51.142;-0.974;2023-12-20T08:03:59;43.28;;;29.02;;
51438;SDS011;38816;51.142;-0.974;2023-12-20T08:06:25;44.88;;;36.47;;
51438;SDS011;38816;51.142;-0.974;2023-12-20T08:08:50;42.92;;;36.58;;
51438;SDS011;38816;51.142;-0.974;2023-12-20T08:11:16;50.00;;;34.00;;
51438;SDS011;38816;51.142;-0.974;2023-12-20T08:13:42;39.08;;;34.83;;
51438;SDS011;38816;51.142;-0.974;2023-12-20T08:16:08;44.47;;;32.25;;
51438;SDS011;38816;51.142;-0.974;2023-12-20T08:18:34;36.92;;;30.08;;
51438;SDS011;38816;51.142;-0.974;2023-12-20T08:21:00;36.58;;;27.02;;
51438;SDS011;38816;51.142;-0.974;2023-12-20T08:23:26;36.67;;;26.73;;
51438;SDS011;38816;51.142;-0.974;2023-12-20T08:25:51;33.10;;;20.77;;
51438;SDS011;38816;51.142;-0.974;2023-12-20T08:28:17;24.27;;;16.77;;
51438;SDS011;38816;51.142;-0.974;2023-12-20T08:30:42;28.83;;;17.20;;
51438;SDS011;38816;51.142;-0.974;2023-12-20T08:33:08;31.88;;;16.88;;
51438;SDS011;38816;51.142;-0.974;2023-12-20T08:35:37;23.90;;;16.92;;
51438;SDS011;38816;51.142;-0.974;2023-12-20T08:38:03;32.88;;;20.10;;
51438;SDS011;38816;51.142;-0.974;2023-12-20T08:40:29;41.17;;;21.17;;
51438;SDS011;38816;51.142;-0.974;2023-12-20T08:42:55;30.40;;;18.88;;
51438;SDS011;38816;51.142;-0.974;2023-12-20T08:45:21;32.90;;;27.92;;
51438;SDS011;38816;51.142;-0.974;2023-12-20T08:47:47;31.23;;;23.88;;
51438;SDS011;38816;51.142;-0.974;2023-12-20T08:50:12;20.55;;;18.67;;
51438;SDS011;38816;51.142;-0.974;2023-12-20T08:52:38;29.95;;;22.90;;
51438;SDS011;38816;51.142;-0.974;2023-12-20T08:55:04;35.40;;;22.40;;
51438;SDS011;38816;51.142;-0.974;2023-12-20T08:57:30;35.55;;;23.33;;
51438;SDS011;38816;51.142;-0.974;2023-12-20T08:59:57;30.40;;;24.90;;
51438;SDS011;38816;51.142;-0.974;2023-12-20T09:02:22;36.33;;;30.35;;
51438;SDS011;38816;51.142;-0.974;2023-12-20T09:04:48;24.63;;;19.90;;
51438;SDS011;38816;51.142;-0.974;2023-12-20T09:07:23;39.05;;;34.67;;
51438;SDS011;38816;51.142;-0.974;2023-12-20T09:09:49;33.10;;;27.38;;
51438;SDS011;38816;51.142;-0.974;2023-12-20T09:12:14;33.63;;;29.23;;
51438;SDS011;38816;51.142;-0.974;2023-12-20T09:14:40;21.85;;;19.75;;
51438;SDS011;38816;51.142;-0.974;2023-12-20T09:17:06;33.42;;;30.13;;
51438;SDS011;38816;51.142;-0.974;2023-12-20T09:19:33;21.15;;;18.95;;
51438;SDS011;38816;51.142;-0.974;2023-12-20T09:21:59;37.10;;;33.40;;
51438;SDS011;38816;51.142;-0.974;2023-12-20T09:24:25;30.42;;;27.25;;
51438;SDS011;38816;51.142;-0.974;2023-12-20T09:26:50;47.08;;;42.70;;
51438;SDS011;38816;51.142;-0.974;2023-12-20T09:29:15;36.50;;;28.45;;
51438;SDS011;38816;51.142;-0.974;2023-12-20T09:31:42;34.50;;;30.75;;
51438;SDS011;38816;51.142;-0.974;2023-12-20T09:34:09;41.85;;;37.78;;
51438;SDS011;38816;51.142;-0.974;2023-12-20T09:36:35;42.05;;;37.90;;
51438;SDS011;38816;51.142;-0.974;2023-12-20T09:39:01;38.38;;;34.33;;
51438;SDS011;38816;51.142;-0.974;2023-12-20T09:41:28;42.83;;;38.78;;
51438;SDS011;38816;51.142;-0.974;2023-12-20T09:44:00;39.22;;;35.70;;
51438;SDS011;38816;51.142;-0.974;2023-12-20T09:46:27;45.75;;;41.28;;
51438;SDS011;38816;51.142;-0.974;2023-12-20T09:48:58;50.80;;;45.35;;
51438;SDS011;38816;51.142;-0.974;2023-12-20T09:51:26;47.38;;;42.55;;
51438;SDS011;38816;51.142;-0.974;2023-12-20T09:53:54;49.58;;;44.63;;
51438;SDS011;38816;51.142;-0.974;2023-12-20T09:56:21;47.05;;;42.45;;
51438;SDS011;38816;51.142;-0.974;2023-12-20T09:58:47;30.33;;;26.92;;
51438;SDS011;38816;51.142;-0.974;2023-12-20T10:01:13;30.80;;;27.50;;
51438;SDS011;38816;51.142;-0.974;2023-12-20T10:03:41;30.27;;;27.33;;
51438;SDS011;38816;51.142;-0.974;2023-12-20T10:06:07;28.45;;;25.42;;
51438;SDS011;38816;51.142;-0.974;2023-12-20T10:08:33;50.58;;;45.75;;
51438;SDS011;38816;51.142;-0.974;2023-12-20T10:10:59;27.95;;;25.38;;
51438;SDS011;38816;51.142;-0.974;2023-12-20T10:13:27;44.60;;;40.72;;
51438;SDS011;38816;51.142;-0.974;2023-12-20T10:15:54;44.80;;;40.72;;
51438;SDS011;38816;51.142;-0.974;2023-12-20T10:18:20;27.67;;;24.40;;
51438;SDS011;38816;51.142;-0.974;2023-12-20T10:20:46;34.42;;;31.23;;
51438;SDS011;38816;51.142;-0.974;2023-12-20T10:23:12;26.30;;;24.00;;
51438;SDS011;38816;51.142;-0.974;2023-12-20T10:25:39;47.92;;;43.95;;
51438;SDS011;38816;51.142;-0.974;2023-12-20T10:28:16;46.15;;;41.80;;
51438;SDS011;38816;51.142;-0.974;2023-12-20T10:30:47;46.20;;;42.00;;
51438;SDS011;38816;51.142;-0.974;2023-12-20T10:33:13;46.28;;;42.20;;
51438;SDS011;38816;51.142;-0.974;2023-12-20T10:35:47;34.35;;;31.23;;
51438;SDS011;38816;51.142;-0.974;2023-12-20T10:38:13;15.65;;;14.13;;
51438;SDS011;38816;51.142;-0.974;2023-12-20T10:40:40;21.08;;;16.55;;
51438;SDS011;38816;51.142;-0.974;2023-12-20T10:43:06;18.65;;;15.02;;
51438;SDS011;38816;51.142;-0.974;2023-12-20T10:45:33;11.88;;;8.43;;
51438;SDS011;38816;51.142;-0.974;2023-12-20T10:47:59;10.15;;;9.15;;
51438;SDS011;38816;51.142;-0.974;2023-12-20T10:50:26;20.30;;;15.13;;
51438;SDS011;38816;51.142;-0.974;2023-12-20T10:52:54;21.98;;;16.25;;
51438;SDS011;38816;51.142;-0.974;2023-12-20T10:55:23;19.35;;;9.65;;
51438;SDS011;38816;51.142;-0.974;2023-12-20T10:58:23;16.50;;;12.88;;
51438;SDS011;38816;51.142;-0.974;2023-12-20T11:00:44;18.75;;;16.95;;
51438;SDS011;38816;51.142;-0.974;2023-12-20T11:03:12;15.95;;;13.25;;
51438;SDS011;38816;51.142;-0.974;2023-12-20T11:08:26;16.92;;;15.40;;
51438;SDS011;38816;51.142;-0.974;2023-12-20T11:11:06;15.65;;;14.10;;
51438;SDS011;38816;51.142;-0.974;2023-12-20T11:13:40;18.20;;;16.48;;
51438;SDS011;38816;51.142;-0.974;2023-12-20T11:16:13;15.32;;;10.25;;
51438;SDS011;38816;51.142;-0.974;2023-12-20T11:18:39;15.20;;;11.90;;
51438;SDS011;38816;51.142;-0.974;2023-12-20T11:21:05;18.60;;;12.70;;
51438;SDS011;38816;51.142;-0.974;2023-12-20T11:23:34;18.08;;;14.00;;
51438;SDS011;38816;51.142;-0.974;2023-12-20T11:26:00;19.88;;;14.68;;
51438;SDS011;38816;51.142;-0.974;2023-12-20T11:28:27;19.23;;;17.48;;
51438;SDS011;38816;51.142;-0.974;2023-12-20T11:30:55;21.33;;;18.75;;
51438;SDS011;38816;51.142;-0.974;2023-12-20T11:33:25;21.02;;;16.33;;
51438;SDS011;38816;51.142;-0.974;2023-12-20T11:35:55;11.15;;;9.73;;
51438;SDS011;38816;51.142;-0.974;2023-12-20T11:38:21;17.48;;;16.02;;
51438;SDS011;38816;51.142;-0.974;2023-12-20T11:40:50;22.38;;;18.23;;
51438;SDS011;38816;51.142;-0.974;2023-12-20T11:43:37;19.15;;;17.02;;
51438;SDS011;38816;51.142;-0.974;2023-12-20T11:46:03;12.35;;;9.38;;
51438;SDS011;38816;51.142;-0.974;2023-12-20T11:48:32;12.65;;;8.95;;
51438;SDS011;38816;51.142;-0.974;2023-12-20T11:50:59;17.73;;;13.43;;
51438;SDS011;38816;51.142;-0.974;2023-12-20T11:53:25;17.00;;;15.40;;
51438;SDS011;38816;51.142;-0.974;2023-12-20T11:55:50;12.27;;;11.05;;
51438;SDS011;38816;51.142;-0.974;2023-12-20T11:58:16;17.38;;;15.05;;
51438;SDS011;38816;51.142;-0.974;2023-12-20T12:00:42;12.70;;;10.48;;
51438;SDS011;38816;51.142;-0.974;2023-12-20T12:03:08;6.32;;;5.57;;
51438;SDS011;38816;51.142;-0.974;2023-12-20T12:05:34;15.57;;;13.38;;
51438;SDS011;38816;51.142;-0.974;2023-12-20T12:08:01;16.55;;;13.50;;
51438;SDS011;38816;51.142;-0.974;2023-12-20T12:10:27;22.42;;;14.30;;
51438;SDS011;38816;51.142;-0.974;2023-12-20T12:12:53;9.32;;;8.35;;
51438;SDS011;38816;51.142;-0.974;2023-12-20T12:15:19;15.40;;;13.73;;
51438;SDS011;38816;51.142;-0.974;2023-12-20T12:17:52;13.77;;;10.38;;
51438;SDS011;38816;51.142;-0.974;2023-12-20T12:20:19;13.10;;;11.10;;
51438;SDS011;38816;51.142;-0.974;2023-12-20T12:22:46;11.95;;;10.70;;
51438;SDS011;38816;51.142;-0.974;2023-12-20T12:25:23;12.23;;;10.60;;
51438;SDS011;38816;51.142;-0.974;2023-12-20T12:27:48;17.20;;;10.85;;
51438;SDS011;38816;51.142;-0.974;2023-12-20T12:30:16;13.25;;;12.05;;
51438;SDS011;38816;51.142;-0.974;2023-12-20T12:32:43;10.25;;;9.23;;
51438;SDS011;38816;51.142;-0.974;2023-12-20T12:35:10;13.80;;;12.30;;
51438;SDS011;38816;51.142;-0.974;2023-12-20T12:37:39;12.70;;;10.88;;
51438;SDS011;38816;51.142;-0.974;2023-12-20T12:40:15;18.75;;;16.77;;
51438;SDS011;38816;51.142;-0.974;2023-12-20T12:42:43;11.55;;;10.38;;
51438;SDS011;38816;51.142;-0.974;2023-12-20T12:45:09;11.38;;;9.75;;
51438;SDS011;38816;51.142;-0.974;2023-12-20T12:47:36;14.75;;;13.25;;
51438;SDS011;38816;51.142;-0.974;2023-12-20T12:50:02;19.40;;;16.65;;
51438;SDS011;38816;51.142;-0.974;2023-12-20T12:52:29;13.43;;;12.18;;
51438;SDS011;38816;51.142;-0.974;2023-12-20T12:54:55;15.63;;;14.13;;
51438;SDS011;38816;51.142;-0.974;2023-12-20T12:57:21;12.23;;;10.85;;
51438;SDS011;38816;51.142;-0.974;2023-12-20T12:59:46;9.98;;;7.32;;
51438;SDS011;38816;51.142;-0.974;2023-12-20T13:02:12;14.10;;;11.00;;
51438;SDS011;38816;51.142;-0.974;2023-12-20T13:04:38;15.48;;;11.85;;
51438;SDS011;38816;51.142;-0.974;2023-12-20T13:07:04;10.63;;;9.55;;
51438;SDS011;38816;51.142;-0.974;2023-12-20T13:09:31;15.98;;;13.65;;
51438;SDS011;38816;51.142;-0.974;2023-12-20T13:11:56;15.68;;;14.15;;
51438;SDS011;38816;51.142;-0.974;2023-12-20T13:14:22;12.30;;;10.32;;
51438;SDS011;38816;51.142;-0.974;2023-12-20T13:16:47;14.70;;;7.85;;
51438;SDS011;38816;51.142;-0.974;2023-12-20T13:19:13;12.32;;;11.02;;
51438;SDS011;38816;51.142;-0.974;2023-12-20T13:21:39;10.95;;;9.43;;
51438;SDS011;38816;51.142;-0.974;2023-12-20T13:24:06;10.30;;;8.50;;
51438;SDS011;38816;51.142;-0.974;2023-12-20T13:26:31;15.70;;;10.85;;
51438;SDS011;38816;51.142;-0.974;2023-12-20T13:28:58;9.50;;;8.40;;
51438;SDS011;38816;51.142;-0.974;2023-12-20T13:31:23;12.70;;;9.90;;
51438;SDS011;38816;51.142;-0.974;2023-12-20T13:33:49;11.45;;;7.93;;
51438;SDS011;38816;51.142;-0.974;2023-12-20T13:36:14;13.10;;;9.73;;
51438;SDS011;38816;51.142;-0.974;2023-12-20T13:38:40;12.63;;;9.38;;
51438;SDS011;38816;51.142;-0.974;2023-12-20T13:41:06;10.50;;;9.45;;
51438;SDS011;38816;51.142;-0.974;2023-12-20T13:43:32;15.82;;;7.97;;
51438;SDS011;38816;51.142;-0.974;2023-12-20T13:45:58;10.93;;;9.73;;
51438;SDS011;38816;51.142;-0.974;2023-12-20T13:48:24;15.82;;;9.32;;
51438;SDS011;38816;51.142;-0.974;2023-12-20T13:50:49;9.43;;;8.07;;
51438;SDS011;38816;51.142;-0.974;2023-12-20T13:53:15;9.85;;;8.88;;
51438;SDS011;38816;51.142;-0.974;2023-12-20T13:55:41;17.08;;;11.02;;
51438;SDS011;38816;51.142;-0.974;2023-12-20T13:58:07;14.15;;;10.63;;
51438;SDS011;38816;51.142;-0.974;2023-12-20T14:00:32;12.52;;;11.43;;
51438;SDS011;38816;51.142;-0.974;2023-12-20T14:02:58;13.40;;;12.02;;
51438;SDS011;38816;51.142;-0.974;2023-12-20T14:05:23;13.52;;;11.38;;
51438;SDS011;38816;51.142;-0.974;2023-12-20T14:07:49;15.60;;;11.98;;